KGJT/GJT METAR and TAF weather

Enter ICAO airport designator
Station Type Date Time Source
KGJT METAR 2021/10/20 05:53 UTC NOAA

KGJT 200553Z AUTO 08003KT 10SM CLR 03/00 A3023 RMK AO2 SLP227 T00280000 10094 20022 51016


Station Type Date Time Source
KGJT Decoded METAR 2021/10/20 05:53 UTC NOAA

GRAND JUNCTION WALKER FIELD, CO, United States (KGJT) 39-08N 108-32W 1452M
Oct 20, 2021 - 01:53 AM EDT / 2021.10.20 0553 UTC
Wind: from the E (080 degrees) at 3 MPH (3 KT):0
Visibility: 10 mile(s):0
Sky conditions: clear
Temperature: 37.0 F (2.8 C)
Dew Point: 32.0 F (0.0 C)
Relative Humidity: 81%
Pressure (altimeter): 30.23 in. Hg (1023 hPa)
Pressure tendency: 0.05 inches (1.6 hPa) higher than three hours ago
ob: KGJT 200553Z AUTO 08003KT 10SM CLR 03/00 A3023 RMK AO2 SLP227 T00280000 10094 20022 51016
cycle: 6

Station Type Date Time Source
KGJT TAF 2021/10/20 06:30 UTC NOAA

TAF KGJT 200527Z 2006/2106 10005KT P6SM SKC
FM201500 15007KT P6SM SKC
FM202000 31008KT P6SM FEW100 FEW250

Example: see airport list